sensor_id;sensor_type;location;lat;lon;timestamp;pressure;altitude;pressure_sealevel;temperature;humidity
76205;BME280;64986;55.672;37.628;2023-02-04T00:01:18;98969.38;;;-0.06;78.41
76205;BME280;64986;55.672;37.628;2023-02-04T00:03:43;98965.28;;;-0.08;78.87
76205;BME280;64986;55.672;37.628;2023-02-04T00:06:09;98964.69;;;-0.02;78.66
76205;BME280;64986;55.672;37.628;2023-02-04T00:08:34;98966.69;;;0.04;79.10
76205;BME280;64986;55.672;37.628;2023-02-04T00:11:02;98961.19;;;0.07;79.07
76205;BME280;64986;55.672;37.628;2023-02-04T00:13:28;98961.19;;;0.07;78.61
76205;BME280;64986;55.672;37.628;2023-02-04T00:15:53;98968.53;;;0.12;78.30
76205;BME280;64986;55.672;37.628;2023-02-04T00:18:19;98972.84;;;0.03;78.66
76205;BME280;64986;55.672;37.628;2023-02-04T00:20:44;98977.63;;;-0.02;78.60
76205;BME280;64986;55.672;37.628;2023-02-04T00:23:10;98984.75;;;-0.04;78.40
76205;BME280;64986;55.672;37.628;2023-02-04T00:25:35;98977.41;;;-0.09;78.70
76205;BME280;64986;55.672;37.628;2023-02-04T00:28:01;98977.72;;;-0.12;79.09
76205;BME280;64986;55.672;37.628;2023-02-04T00:30:28;98973.66;;;-0.14;79.30
76205;BME280;64986;55.672;37.628;2023-02-04T00:32:53;98981.44;;;-0.14;79.39
76205;BME280;64986;55.672;37.628;2023-02-04T00:35:21;98982.91;;;-0.12;79.19
76205;BME280;64986;55.672;37.628;2023-02-04T00:37:47;98982.91;;;-0.12;79.40
76205;BME280;64986;55.672;37.628;2023-02-04T00:40:13;98975.28;;;-0.13;79.18
76205;BME280;64986;55.672;37.628;2023-02-04T00:42:38;98992.44;;;-0.12;79.65
76205;BME280;64986;55.672;37.628;2023-02-04T00:45:04;98989.53;;;-0.09;79.63
76205;BME280;64986;55.672;37.628;2023-02-04T00:47:30;98987.00;;;-0.01;79.29
76205;BME280;64986;55.672;37.628;2023-02-04T00:49:55;98993.69;;;0.02;79.43
76205;BME280;64986;55.672;37.628;2023-02-04T00:52:21;98999.88;;;0.09;79.40
76205;BME280;64986;55.672;37.628;2023-02-04T00:54:46;99005.13;;;0.17;78.66
76205;BME280;64986;55.672;37.628;2023-02-04T00:57:12;99005.28;;;0.15;78.78
76205;BME280;64986;55.672;37.628;2023-02-04T00:59:37;99005.94;;;0.17;78.80
76205;BME280;64986;55.672;37.628;2023-02-04T01:02:03;99007.13;;;0.23;79.26
76205;BME280;64986;55.672;37.628;2023-02-04T01:04:29;99014.41;;;0.27;78.64
76205;BME280;64986;55.672;37.628;2023-02-04T01:06:54;99011.00;;;0.27;78.39
76205;BME280;64986;55.672;37.628;2023-02-04T01:09:20;99016.34;;;0.25;78.56
76205;BME280;64986;55.672;37.628;2023-02-04T01:11:45;99012.78;;;0.26;78.52
76205;BME280;64986;55.672;37.628;2023-02-04T01:14:12;99009.41;;;0.26;78.24
76205;BME280;64986;55.672;37.628;2023-02-04T01:16:37;99002.22;;;0.20;78.48
76205;BME280;64986;55.672;37.628;2023-02-04T01:19:03;99015.25;;;0.10;78.28
76205;BME280;64986;55.672;37.628;2023-02-04T01:21:28;99003.72;;;0.05;78.83
76205;BME280;64986;55.672;37.628;2023-02-04T01:23:54;99010.53;;;0.06;78.77
76205;BME280;64986;55.672;37.628;2023-02-04T01:26:20;99011.88;;;0.10;78.95
76205;BME280;64986;55.672;37.628;2023-02-04T01:28:46;99013.09;;;0.23;78.57
76205;BME280;64986;55.672;37.628;2023-02-04T01:31:12;99015.69;;;0.23;78.35
76205;BME280;64986;55.672;37.628;2023-02-04T01:33:38;99012.06;;;0.16;78.71
76205;BME280;64986;55.672;37.628;2023-02-04T01:36:03;99020.13;;;0.31;78.40
76205;BME280;64986;55.672;37.628;2023-02-04T01:38:29;99023.31;;;0.25;78.17
76205;BME280;64986;55.672;37.628;2023-02-04T01:40:55;99020.50;;;0.18;77.99
76205;BME280;64986;55.672;37.628;2023-02-04T01:43:21;99021.41;;;0.09;78.33
76205;BME280;64986;55.672;37.628;2023-02-04T01:45:48;99021.41;;;0.09;78.55
76205;BME280;64986;55.672;37.628;2023-02-04T01:48:14;99033.53;;;0.09;78.54
76205;BME280;64986;55.672;37.628;2023-02-04T01:50:59;99033.75;;;0.15;78.39
76205;BME280;64986;55.672;37.628;2023-02-04T01:53:27;99031.44;;;0.12;78.50
76205;BME280;64986;55.672;37.628;2023-02-04T01:55:52;99032.56;;;0.10;78.48
76205;BME280;64986;55.672;37.628;2023-02-04T01:58:18;99032.50;;;0.02;78.65
76205;BME280;64986;55.672;37.628;2023-02-04T02:00:44;99041.72;;;0.04;78.47
76205;BME280;64986;55.672;37.628;2023-02-04T02:03:10;99042.38;;;0.06;78.71
76205;BME280;64986;55.672;37.628;2023-02-04T02:08:05;99051.25;;;0.21;78.10
76205;BME280;64986;55.672;37.628;2023-02-04T02:10:32;99049.41;;;0.14;78.39
76205;BME280;64986;55.672;37.628;2023-02-04T02:12:59;99061.31;;;0.24;78.19
76205;BME280;64986;55.672;37.628;2023-02-04T02:15:25;99060.19;;;0.27;78.01
76205;BME280;64986;55.672;37.628;2023-02-04T02:17:52;99057.59;;;0.27;77.98
76205;BME280;64986;55.672;37.628;2023-02-04T02:20:20;99066.34;;;0.26;77.92
76205;BME280;64986;55.672;37.628;2023-02-04T02:25:40;99058.94;;;0.31;77.46
76205;BME280;64986;55.672;37.628;2023-02-04T02:28:10;99053.91;;;0.30;77.41
76205;BME280;64986;55.672;37.628;2023-02-04T02:30:36;99064.56;;;0.26;77.45
76205;BME280;64986;55.672;37.628;2023-02-04T02:33:03;99061.00;;;0.27;77.75
76205;BME280;64986;55.672;37.628;2023-02-04T02:35:29;99064.25;;;0.30;77.17
76205;BME280;64986;55.672;37.628;2023-02-04T02:37:54;99067.31;;;0.25;77.25
76205;BME280;64986;55.672;37.628;2023-02-04T02:40:20;99066.34;;;0.26;77.36
76205;BME280;64986;55.672;37.628;2023-02-04T02:42:48;99069.16;;;0.33;77.05
76205;BME280;64986;55.672;37.628;2023-02-04T02:45:24;99065.28;;;0.37;77.07
76205;BME280;64986;55.672;37.628;2023-02-04T02:47:50;99073.56;;;0.40;76.06
76205;BME280;64986;55.672;37.628;2023-02-04T02:50:19;99078.22;;;0.37;76.38
76205;BME280;64986;55.672;37.628;2023-02-04T02:52:45;99083.56;;;0.35;76.51
76205;BME280;64986;55.672;37.628;2023-02-04T02:55:13;99083.94;;;0.40;76.29
76205;BME280;64986;55.672;37.628;2023-02-04T02:57:40;99086.00;;;0.37;76.46
76205;BME280;64986;55.672;37.628;2023-02-04T03:00:14;99085.72;;;0.40;75.79
76205;BME280;64986;55.672;37.628;2023-02-04T03:02:40;99095.09;;;0.41;76.20
76205;BME280;64986;55.672;37.628;2023-02-04T03:05:06;99088.28;;;0.40;76.22
76205;BME280;64986;55.672;37.628;2023-02-04T03:07:31;99091.53;;;0.42;75.98
76205;BME280;64986;55.672;37.628;2023-02-04T03:09:57;99092.34;;;0.42;75.76
76205;BME280;64986;55.672;37.628;2023-02-04T03:12:23;99096.06;;;0.40;75.61
76205;BME280;64986;55.672;37.628;2023-02-04T03:14:48;99095.38;;;0.38;75.48
76205;BME280;64986;55.672;37.628;2023-02-04T03:17:14;99081.13;;;0.34;75.79
76205;BME280;64986;55.672;37.628;2023-02-04T03:19:40;99093.63;;;0.38;75.62
76205;BME280;64986;55.672;37.628;2023-02-04T03:22:06;99101.84;;;0.34;75.71
76205;BME280;64986;55.672;37.628;2023-02-04T03:24:32;99087.63;;;0.20;75.77
76205;BME280;64986;55.672;37.628;2023-02-04T03:26:59;99117.06;;;0.37;75.64
76205;BME280;64986;55.672;37.628;2023-02-04T03:29:24;99110.47;;;0.42;75.74
76205;BME280;64986;55.672;37.628;2023-02-04T03:31:50;99111.94;;;0.45;75.35
76205;BME280;64986;55.672;37.628;2023-02-04T03:34:15;99114.25;;;0.48;74.95
76205;BME280;64986;55.672;37.628;2023-02-04T03:36:41;99116.19;;;0.46;75.38
76205;BME280;64986;55.672;37.628;2023-02-04T03:39:07;99110.31;;;0.44;75.14
76205;BME280;64986;55.672;37.628;2023-02-04T03:41:32;99117.50;;;0.50;75.14
76205;BME280;64986;55.672;37.628;2023-02-04T03:43:58;99123.66;;;0.49;75.18
76205;BME280;64986;55.672;37.628;2023-02-04T03:46:23;99123.34;;;0.52;74.92
76205;BME280;64986;55.672;37.628;2023-02-04T03:48:50;99129.84;;;0.56;74.96
76205;BME280;64986;55.672;37.628;2023-02-04T03:51:15;99123.72;;;0.57;74.87
76205;BME280;64986;55.672;37.628;2023-02-04T03:53:41;99125.34;;;0.58;74.73
76205;BME280;64986;55.672;37.628;2023-02-04T03:56:06;99130.34;;;0.60;74.63
76205;BME280;64986;55.672;37.628;2023-02-04T03:58:32;99129.25;;;0.62;74.29
76205;BME280;64986;55.672;37.628;2023-02-04T04:00:57;99134.59;;;0.61;74.18
76205;BME280;64986;55.672;37.628;2023-02-04T04:03:23;99133.75;;;0.60;73.64
76205;BME280;64986;55.672;37.628;2023-02-04T04:05:48;99132.28;;;0.58;73.59
76205;BME280;64986;55.672;37.628;2023-02-04T04:08:14;99125.13;;;0.51;73.58
76205;BME280;64986;55.672;37.628;2023-02-04T04:10:39;99138.00;;;0.61;73.58
76205;BME280;64986;55.672;37.628;2023-02-04T04:13:05;99127.56;;;0.53;73.88
76205;BME280;64986;55.672;37.628;2023-02-04T04:15:30;99146.06;;;0.58;73.80
76205;BME280;64986;55.672;37.628;2023-02-04T04:17:56;99146.34;;;0.55;74.01
76205;BME280;64986;55.672;37.628;2023-02-04T04:20:22;99144.06;;;0.52;74.03
76205;BME280;64986;55.672;37.628;2023-02-04T04:22:52;99152.94;;;0.49;74.18
76205;BME280;64986;55.672;37.628;2023-02-04T04:25:17;99150.50;;;0.48;74.41
76205;BME280;64986;55.672;37.628;2023-02-04T04:27:43;99156.94;;;0.44;74.63
76205;BME280;64986;55.672;37.628;2023-02-04T04:30:10;99154.00;;;0.39;74.59
76205;BME280;64986;55.672;37.628;2023-02-04T04:32:35;99163.16;;;0.33;75.05
76205;BME280;64986;55.672;37.628;2023-02-04T04:35:01;99154.34;;;0.26;75.44
76205;BME280;64986;55.672;37.628;2023-02-04T04:37:27;99151.84;;;0.16;75.84
76205;BME280;64986;55.672;37.628;2023-02-04T04:39:53;99154.69;;;0.13;76.08
76205;BME280;64986;55.672;37.628;2023-02-04T04:42:19;99158.41;;;0.11;76.53
76205;BME280;64986;55.672;37.628;2023-02-04T04:44:44;99155.41;;;0.06;76.64
76205;BME280;64986;55.672;37.628;2023-02-04T04:47:10;99163.03;;;0.07;76.91
76205;BME280;64986;55.672;37.628;2023-02-04T04:49:35;99170.72;;;-0.01;77.03
76205;BME280;64986;55.672;37.628;2023-02-04T04:52:01;99168.00;;;0.01;76.92
76205;BME280;64986;55.672;37.628;2023-02-04T04:54:26;99166.50;;;-0.02;77.03
76205;BME280;64986;55.672;37.628;2023-02-04T04:56:52;99169.47;;;0.03;77.30
76205;BME280;64986;55.672;37.628;2023-02-04T04:59:17;99178.03;;;0.04;77.03
76205;BME280;64986;55.672;37.628;2023-02-04T05:01:43;99176.41;;;0.03;77.71
76205;BME280;64986;55.672;37.628;2023-02-04T05:04:08;99171.25;;;0.03;77.50
76205;BME280;64986;55.672;37.628;2023-02-04T05:06:34;99175.31;;;0.05;77.70
76205;BME280;64986;55.672;37.628;2023-02-04T05:08:59;99183.63;;;0.09;77.84
76205;BME280;64986;55.672;37.628;2023-02-04T05:11:25;99185.22;;;0.10;78.15
76205;BME280;64986;55.672;37.628;2023-02-04T05:13:50;99193.34;;;0.15;77.77
76205;BME280;64986;55.672;37.628;2023-02-04T05:16:16;99190.91;;;0.13;78.01
76205;BME280;64986;55.672;37.628;2023-02-04T05:18:42;99198.03;;;0.11;77.92
76205;BME280;64986;55.672;37.628;2023-02-04T05:21:07;99203.88;;;0.13;78.06
76205;BME280;64986;55.672;37.628;2023-02-04T05:23:33;99194.63;;;0.11;78.10
76205;BME280;64986;55.672;37.628;2023-02-04T05:25:59;99207.66;;;0.19;77.63
76205;BME280;64986;55.672;37.628;2023-02-04T05:28:24;99213.34;;;0.22;77.45
76205;BME280;64986;55.672;37.628;2023-02-04T05:30:50;99204.09;;;0.20;77.41
76205;BME280;64986;55.672;37.628;2023-02-04T05:33:15;99215.81;;;0.24;77.52
76205;BME280;64986;55.672;37.628;2023-02-04T05:35:41;99221.50;;;0.27;77.10
76205;BME280;64986;55.672;37.628;2023-02-04T05:38:06;99214.38;;;0.30;77.14
76205;BME280;64986;55.672;37.628;2023-02-04T05:40:32;99215.72;;;0.34;77.06
76205;BME280;64986;55.672;37.628;2023-02-04T05:42:57;99219.94;;;0.35;77.09
76205;BME280;64986;55.672;37.628;2023-02-04T05:45:23;99207.88;;;0.25;76.99
76205;BME280;64986;55.672;37.628;2023-02-04T05:47:48;99222.53;;;0.35;77.15
76205;BME280;64986;55.672;37.628;2023-02-04T05:50:14;99235.28;;;0.46;76.96
76205;BME280;64986;55.672;37.628;2023-02-04T05:52:40;99234.84;;;0.50;76.72
76205;BME280;64986;55.672;37.628;2023-02-04T05:55:06;99238.78;;;0.54;76.59
76205;BME280;64986;55.672;37.628;2023-02-04T05:57:32;99248.00;;;0.57;76.28
76205;BME280;64986;55.672;37.628;2023-02-04T05:59:57;99243.97;;;0.54;76.29
76205;BME280;64986;55.672;37.628;2023-02-04T06:02:23;99247.06;;;0.58;76.27
76205;BME280;64986;55.672;37.628;2023-02-04T06:04:49;99250.03;;;0.63;76.04
76205;BME280;64986;55.672;37.628;2023-02-04T06:07:14;99258.59;;;0.64;76.01
76205;BME280;64986;55.672;37.628;2023-02-04T06:09:40;99261.63;;;0.59;75.58
76205;BME280;64986;55.672;37.628;2023-02-04T06:12:05;99253.19;;;0.57;75.73
76205;BME280;64986;55.672;37.628;2023-02-04T06:14:31;99262.97;;;0.63;75.57
76205;BME280;64986;55.672;37.628;2023-02-04T06:16:56;99272.88;;;0.68;75.07
76205;BME280;64986;55.672;37.628;2023-02-04T06:19:24;99275.19;;;0.71;74.62
76205;BME280;64986;55.672;37.628;2023-02-04T06:21:49;99273.72;;;0.68;74.34
76205;BME280;64986;55.672;37.628;2023-02-04T06:24:15;99278.22;;;0.66;74.13
76205;BME280;64986;55.672;37.628;2023-02-04T06:26:40;99278.59;;;0.71;73.96
76205;BME280;64986;55.672;37.628;2023-02-04T06:29:06;99285.78;;;0.77;73.87
76205;BME280;64986;55.672;37.628;2023-02-04T06:31:31;99291.94;;;0.76;73.83
76205;BME280;64986;55.672;37.628;2023-02-04T06:33:57;99286.94;;;0.83;73.31
76205;BME280;64986;55.672;37.628;2023-02-04T06:36:22;99289.94;;;0.88;73.11
76205;BME280;64986;55.672;37.628;2023-02-04T06:38:48;99291.69;;;0.88;72.59
76205;BME280;64986;55.672;37.628;2023-02-04T06:41:13;99287.25;;;0.98;72.05
76205;BME280;64986;55.672;37.628;2023-02-04T06:43:39;99294.88;;;1.17;72.06
76205;BME280;64986;55.672;37.628;2023-02-04T06:46:04;99297.47;;;1.17;71.34
76205;BME280;64986;55.672;37.628;2023-02-04T06:48:30;99296.88;;;1.23;71.35
76205;BME280;64986;55.672;37.628;2023-02-04T06:50:55;99293.75;;;1.20;70.87
76205;BME280;64986;55.672;37.628;2023-02-04T06:53:21;99299.00;;;1.28;71.43
76205;BME280;64986;55.672;37.628;2023-02-04T06:55:46;99306.03;;;1.35;71.15
76205;BME280;64986;55.672;37.628;2023-02-04T06:58:12;99307.38;;;1.39;70.60
76205;BME280;64986;55.672;37.628;2023-02-04T07:00:37;99309.72;;;1.51;70.70
76205;BME280;64986;55.672;37.628;2023-02-04T07:03:03;99308.91;;;1.68;70.32
76205;BME280;64986;55.672;37.628;2023-02-04T07:05:28;99318.34;;;1.77;69.67
76205;BME280;64986;55.672;37.628;2023-02-04T07:07:54;99319.78;;;1.72;69.60
76205;BME280;64986;55.672;37.628;2023-02-04T07:10:20;99326.63;;;1.81;68.71
76205;BME280;64986;55.672;37.628;2023-02-04T07:12:46;99323.81;;;1.92;68.81
76205;BME280;64986;55.672;37.628;2023-02-04T07:15:11;99332.44;;;2.01;68.47
76205;BME280;64986;55.672;37.628;2023-02-04T07:17:37;99329.34;;;1.97;68.60
76205;BME280;64986;55.672;37.628;2023-02-04T07:20:03;99334.94;;;2.10;68.89
76205;BME280;64986;55.672;37.628;2023-02-04T07:22:28;99334.97;;;2.18;68.70
76205;BME280;64986;55.672;37.628;2023-02-04T07:24:54;99340.56;;;2.32;68.52
76205;BME280;64986;55.672;37.628;2023-02-04T07:27:19;99346.31;;;2.43;67.98
76205;BME280;64986;55.672;37.628;2023-02-04T07:29:45;99348.59;;;2.55;67.77
76205;BME280;64986;55.672;37.628;2023-02-04T07:32:10;99342.63;;;2.62;67.50
76205;BME280;64986;55.672;37.628;2023-02-04T07:34:36;99348.00;;;2.69;67.17
76205;BME280;64986;55.672;37.628;2023-02-04T07:37:01;99344.97;;;2.82;67.43
76205;BME280;64986;55.672;37.628;2023-02-04T07:39:27;99346.78;;;2.89;67.08
76205;BME280;64986;55.672;37.628;2023-02-04T07:41:52;99345.66;;;2.92;67.06
76205;BME280;64986;55.672;37.628;2023-02-04T07:44:18;99346.94;;;2.88;66.14
76205;BME280;64986;55.672;37.628;2023-02-04T07:46:43;99353.59;;;2.82;66.33
76205;BME280;64986;55.672;37.628;2023-02-04T07:49:09;99359.09;;;2.79;65.66
76205;BME280;64986;55.672;37.628;2023-02-04T07:51:34;99364.34;;;2.87;65.76
76205;BME280;64986;55.672;37.628;2023-02-04T07:54:00;99352.63;;;2.91;65.81
76205;BME280;64986;55.672;37.628;2023-02-04T07:56:25;99358.81;;;2.98;65.75
76205;BME280;64986;55.672;37.628;2023-02-04T07:58:51;99363.88;;;3.08;65.52
76205;BME280;64986;55.672;37.628;2023-02-04T08:01:17;99364.06;;;3.15;66.13
76205;BME280;64986;55.672;37.628;2023-02-04T08:03:42;99357.88;;;3.24;65.54
76205;BME280;64986;55.672;37.628;2023-02-04T08:06:08;99362.94;;;3.25;64.55
76205;BME280;64986;55.672;37.628;2023-02-04T08:08:34;99363.59;;;3.27;64.85
76205;BME280;64986;55.672;37.628;2023-02-04T08:10:59;99354.97;;;3.35;64.95
76205;BME280;64986;55.672;37.628;2023-02-04T08:13:25;99362.78;;;3.27;64.31
76205;BME280;64986;55.672;37.628;2023-02-04T08:15:51;99367.00;;;3.28;63.67
76205;BME280;64986;55.672;37.628;2023-02-04T08:18:16;99366.66;;;3.23;63.93
76205;BME280;64986;55.672;37.628;2023-02-04T08:20:42;99374.47;;;3.15;65.14
76205;BME280;64986;55.672;37.628;2023-02-04T08:23:07;99374.47;;;3.15;64.44
76205;BME280;64986;55.672;37.628;2023-02-04T08:25:33;99377.41;;;3.20;65.13
76205;BME280;64986;55.672;37.628;2023-02-04T08:27:59;99375.94;;;3.25;64.63
76205;BME280;64986;55.672;37.628;2023-02-04T08:30:24;99375.47;;;3.38;64.37
76205;BME280;64986;55.672;37.628;2023-02-04T08:32:50;99378.88;;;3.55;63.93
76205;BME280;64986;55.672;37.628;2023-02-04T08:35:16;99387.53;;;3.72;63.52
76205;BME280;64986;55.672;37.628;2023-02-04T08:37:41;99381.34;;;3.81;62.90
76205;BME280;64986;55.672;37.628;2023-02-04T08:40:07;99382.31;;;3.88;63.10
76205;BME280;64986;55.672;37.628;2023-02-04T08:42:33;99384.91;;;3.96;62.80
76205;BME280;64986;55.672;37.628;2023-02-04T08:44:59;99385.56;;;3.90;62.07
76205;BME280;64986;55.672;37.628;2023-02-04T08:47:25;99385.75;;;3.64;62.04
76205;BME280;64986;55.672;37.628;2023-02-04T08:49:50;99388.81;;;3.35;61.89
76205;BME280;64986;55.672;37.628;2023-02-04T08:52:16;99395.44;;;3.29;62.04
76205;BME280;64986;55.672;37.628;2023-02-04T08:54:41;99386.78;;;2.96;62.68
76205;BME280;64986;55.672;37.628;2023-02-04T08:57:07;99397.78;;;2.82;62.44
76205;BME280;64986;55.672;37.628;2023-02-04T08:59:32;99394.84;;;2.85;62.51
76205;BME280;64986;55.672;37.628;2023-02-04T09:01:58;99399.06;;;2.86;62.72
76205;BME280;64986;55.672;37.628;2023-02-04T09:04:23;99401.56;;;2.96;62.71
76205;BME280;64986;55.672;37.628;2023-02-04T09:06:50;99402.69;;;3.01;62.01
76205;BME280;64986;55.672;37.628;2023-02-04T09:09:15;99402.06;;;3.08;62.09
76205;BME280;64986;55.672;37.628;2023-02-04T09:11:42;99407.28;;;3.16;61.98
76205;BME280;64986;55.672;37.628;2023-02-04T09:14:07;99412.84;;;3.21;62.39
76205;BME280;64986;55.672;37.628;2023-02-04T09:16:33;99407.28;;;3.16;62.22
76205;BME280;64986;55.672;37.628;2023-02-04T09:18:59;99413.47;;;3.23;61.69
76205;BME280;64986;55.672;37.628;2023-02-04T09:21:26;99408.16;;;3.41;61.94
76205;BME280;64986;55.672;37.628;2023-02-04T09:23:52;99404.78;;;3.56;61.64
76205;BME280;64986;55.672;37.628;2023-02-04T09:26:18;99406.72;;;3.71;61.90
76205;BME280;64986;55.672;37.628;2023-02-04T09:28:43;99408.81;;;3.83;62.29
76205;BME280;64986;55.672;37.628;2023-02-04T09:31:09;99406.91;;;3.85;61.23
76205;BME280;64986;55.672;37.628;2023-02-04T09:33:35;99404.13;;;3.87;61.60
76205;BME280;64986;55.672;37.628;2023-02-04T09:36:01;99417.13;;;3.95;61.21
76205;BME280;64986;55.672;37.628;2023-02-04T09:38:26;99408.19;;;3.89;62.12
76205;BME280;64986;55.672;37.628;2023-02-04T09:40:54;99414.53;;;3.95;62.22
76205;BME280;64986;55.672;37.628;2023-02-04T09:43:25;99412.09;;;4.02;61.61
76205;BME280;64986;55.672;37.628;2023-02-04T09:45:52;99414.53;;;4.03;61.51
76205;BME280;64986;55.672;37.628;2023-02-04T09:48:18;99415.81;;;4.07;61.66
76205;BME280;64986;55.672;37.628;2023-02-04T09:50:45;99418.56;;;4.14;61.69
76205;BME280;64986;55.672;37.628;2023-02-04T09:53:16;99423.44;;;4.25;61.29
76205;BME280;64986;55.672;37.628;2023-02-04T09:55:44;99427.53;;;4.20;60.81
76205;BME280;64986;55.672;37.628;2023-02-04T09:58:14;99424.25;;;4.26;60.69
76205;BME280;64986;55.672;37.628;2023-02-04T10:00:42;99413.19;;;4.24;61.07
76205;BME280;64986;55.672;37.628;2023-02-04T10:03:14;99433.66;;;4.43;59.22
76205;BME280;64986;55.672;37.628;2023-02-04T10:05:41;99435.31;;;4.36;59.89
76205;BME280;64986;55.672;37.628;2023-02-04T10:08:13;99435.31;;;4.36;59.57
76205;BME280;64986;55.672;37.628;2023-02-04T10:10:39;99424.56;;;4.39;59.34
76205;BME280;64986;55.672;37.628;2023-02-04T10:13:04;99447.84;;;4.49;59.17
76205;BME280;64986;55.672;37.628;2023-02-04T10:15:33;99444.84;;;4.76;59.09
76205;BME280;64986;55.672;37.628;2023-02-04T10:18:02;99430.88;;;5.00;57.62
76205;BME280;64986;55.672;37.628;2023-02-04T10:20:31;99446.72;;;5.29;57.60
76205;BME280;64986;55.672;37.628;2023-02-04T10:22:57;99452.91;;;5.60;57.52
76205;BME280;64986;55.672;37.628;2023-02-04T10:25:24;99454.13;;;5.95;57.11
76205;BME280;64986;55.672;37.628;2023-02-04T10:27:57;99453.13;;;6.33;55.19
76205;BME280;64986;55.672;37.628;2023-02-04T10:32:54;99457.97;;;6.89;55.26
76205;BME280;64986;55.672;37.628;2023-02-04T10:35:21;99457.31;;;7.02;55.72
76205;BME280;64986;55.672;37.628;2023-02-04T10:37:47;99457.94;;;7.04;55.36
76205;BME280;64986;55.672;37.628;2023-02-04T10:40:34;99460.81;;;7.09;53.89
76205;BME280;64986;55.672;37.628;2023-02-04T10:43:14;99458.28;;;7.01;52.30
76205;BME280;64986;55.672;37.628;2023-02-04T10:45:44;99476.19;;;6.82;54.28
76205;BME280;64986;55.672;37.628;2023-02-04T10:48:18;99477.63;;;6.70;54.68
76205;BME280;64986;55.672;37.628;2023-02-04T10:50:45;99478.78;;;6.53;55.76
76205;BME280;64986;55.672;37.628;2023-02-04T10:53:20;99476.50;;;6.50;54.73
76205;BME280;64986;55.672;37.628;2023-02-04T10:56:16;99479.78;;;6.66;53.47
76205;BME280;64986;55.672;37.628;2023-02-04T10:58:43;99478.69;;;6.61;55.62
76205;BME280;64986;55.672;37.628;2023-02-04T11:01:10;99472.56;;;6.54;55.30
76205;BME280;64986;55.672;37.628;2023-02-04T11:03:37;99483.28;;;6.44;55.04
76205;BME280;64986;55.672;37.628;2023-02-04T11:06:23;99496.88;;;6.39;53.67
76205;BME280;64986;55.672;37.628;2023-02-04T11:08:49;99496.53;;;6.05;55.68
76205;BME280;64986;55.672;37.628;2023-02-04T11:11:22;99496.06;;;5.70;56.43
76205;BME280;64986;55.672;37.628;2023-02-04T11:21:40;99499.72;;;5.30;57.07
76205;BME280;64986;55.672;37.628;2023-02-04T11:26:45;99493.78;;;5.05;57.93
76205;BME280;64986;55.672;37.628;2023-02-04T11:31:44;99507.63;;;5.06;58.83
76205;BME280;64986;55.672;37.628;2023-02-04T11:39:28;99510.38;;;5.12;58.89
76205;BME280;64986;55.672;37.628;2023-02-04T11:41:58;99514.31;;;5.08;59.08
76205;BME280;64986;55.672;37.628;2023-02-04T11:44:24;99510.72;;;5.09;59.30
76205;BME280;64986;55.672;37.628;2023-02-04T11:46:54;99520.50;;;5.15;58.86
76205;BME280;64986;55.672;37.628;2023-02-04T11:49:22;99518.69;;;5.16;59.17
76205;BME280;64986;55.672;37.628;2023-02-04T11:51:48;99515.59;;;5.12;59.40
76205;BME280;64986;55.672;37.628;2023-02-04T11:54:15;99526.00;;;5.20;59.19
76205;BME280;64986;55.672;37.628;2023-02-04T11:56:44;99525.50;;;5.25;59.22
76205;BME280;64986;55.672;37.628;2023-02-04T11:59:12;99526.81;;;5.29;58.92
76205;BME280;64986;55.672;37.628;2023-02-04T12:01:38;99533.66;;;5.30;58.98
76205;BME280;64986;55.672;37.628;2023-02-04T12:04:06;99526.81;;;5.29;59.02
76205;BME280;64986;55.672;37.628;2023-02-04T12:06:35;99538.72;;;5.23;59.13
76205;BME280;64986;55.672;37.628;2023-02-04T12:11:51;99541.66;;;5.20;58.50
76205;BME280;64986;55.672;37.628;2023-02-04T12:14:18;99540.59;;;5.07;59.55
76205;BME280;64986;55.672;37.628;2023-02-04T12:16:48;99546.81;;;4.89;59.75
76205;BME280;64986;55.672;37.628;2023-02-04T12:19:17;99552.41;;;4.62;60.38
76205;BME280;64986;55.672;37.628;2023-02-04T12:21:42;99556.81;;;4.45;60.88
76205;BME280;64986;55.672;37.628;2023-02-04T12:24:08;99561.19;;;4.28;61.07
76205;BME280;64986;55.672;37.628;2023-02-04T12:26:34;99564.44;;;4.14;61.43
76205;BME280;64986;55.672;37.628;2023-02-04T12:28:59;99560.38;;;4.03;61.82
76205;BME280;64986;55.672;37.628;2023-02-04T12:31:28;99563.28;;;3.92;61.98
76205;BME280;64986;55.672;37.628;2023-02-04T12:33:54;99572.03;;;3.83;62.44
76205;BME280;64986;55.672;37.628;2023-02-04T12:36:20;99567.16;;;3.72;62.52
76205;BME280;64986;55.672;37.628;2023-02-04T12:38:45;99568.75;;;3.65;62.78
76205;BME280;64986;55.672;37.628;2023-02-04T12:41:11;99564.00;;;3.60;62.82
76205;BME280;64986;55.672;37.628;2023-02-04T12:43:36;99575.22;;;3.60;63.11
76205;BME280;64986;55.672;37.628;2023-02-04T12:46:02;99573.13;;;3.56;63.07
76205;BME280;64986;55.672;37.628;2023-02-04T12:48:28;99583.34;;;3.49;63.30
76205;BME280;64986;55.672;37.628;2023-02-04T12:50:53;99584.13;;;3.42;63.84
76205;BME280;64986;55.672;37.628;2023-02-04T12:53:19;99590.94;;;3.43;63.82
76205;BME280;64986;55.672;37.628;2023-02-04T12:55:44;99592.09;;;3.40;63.76
76205;BME280;64986;55.672;37.628;2023-02-04T12:58:10;99596.78;;;3.37;63.72
76205;BME280;64986;55.672;37.628;2023-02-04T13:00:35;99597.22;;;3.32;64.18
76205;BME280;64986;55.672;37.628;2023-02-04T13:03:01;99590.28;;;3.32;64.34
76205;BME280;64986;55.672;37.628;2023-02-04T13:05:26;99600.50;;;3.34;64.20
76205;BME280;64986;55.672;37.628;2023-02-04T13:07:52;99596.28;;;3.33;64.29
76205;BME280;64986;55.672;37.628;2023-02-04T13:10:18;99604.88;;;3.25;64.62
76205;BME280;64986;55.672;37.628;2023-02-04T13:12:44;99608.72;;;3.21;64.97
76205;BME280;64986;55.672;37.628;2023-02-04T13:15:10;99605.47;;;3.19;65.31
76205;BME280;64986;55.672;37.628;2023-02-04T13:17:35;99605.13;;;3.14;64.58
76205;BME280;64986;55.672;37.628;2023-02-04T13:20:01;99613.69;;;3.06;65.05
76205;BME280;64986;55.672;37.628;2023-02-04T13:22:27;99610.72;;;3.01;65.33
76205;BME280;64986;55.672;37.628;2023-02-04T13:24:52;99617.22;;;2.97;65.56